createdAt,value
2018-03-30T00:00:36.430Z,1000.92
2018-03-30T00:01:36.405Z,1000.87
2018-03-30T00:02:36.379Z,1000.88
2018-03-30T00:03:36.361Z,1000.88
2018-03-30T00:04:36.330Z,1000.86
2018-03-30T00:05:36.306Z,1000.92
2018-03-30T00:06:36.286Z,1000.87
2018-03-30T00:07:36.263Z,1000.87
2018-03-30T00:08:36.238Z,1000.85
2018-03-30T00:09:36.221Z,1000.87
2018-03-30T00:10:36.200Z,1000.84
2018-03-30T00:11:36.193Z,1000.84
2018-03-30T00:12:36.151Z,1000.82
2018-03-30T00:13:36.120Z,1000.82
2018-03-30T00:14:36.094Z,1000.80
2018-03-30T00:15:36.078Z,1000.82
2018-03-30T00:16:36.052Z,1000.75
2018-03-30T00:17:36.027Z,1000.74
2018-03-30T00:18:36.010Z,1000.79
2018-03-30T00:19:35.979Z,1000.79
2018-03-30T00:20:35.957Z,1000.74
2018-03-30T00:21:35.928Z,1000.68
2018-03-30T00:22:35.926Z,1000.65
2018-03-30T00:23:35.889Z,1000.61
2018-03-30T00:24:35.858Z,1000.58
2018-03-30T00:25:35.842Z,1000.62
2018-03-30T00:26:35.939Z,1000.64
2018-03-30T00:27:35.784Z,1000.65
2018-03-30T00:28:35.759Z,1000.62
2018-03-30T00:29:35.830Z,1000.62
2018-03-30T00:30:35.713Z,1000.62
2018-03-30T00:31:35.689Z,1000.59
2018-03-30T00:32:35.716Z,1000.59
2018-03-30T00:33:35.644Z,1000.63
2018-03-30T00:34:35.614Z,1000.62
2018-03-30T00:35:35.592Z,1000.61
2018-03-30T00:36:35.573Z,1000.59
2018-03-30T00:37:35.542Z,1000.57
2018-03-30T00:38:35.517Z,1000.57
2018-03-30T00:39:35.554Z,1000.55
2018-03-30T00:40:35.473Z,1000.54
2018-03-30T00:41:35.444Z,1000.52
2018-03-30T00:42:35.431Z,1000.53
2018-03-30T00:43:35.397Z,1000.54
2018-03-30T00:44:35.371Z,1000.55
2018-03-30T00:45:35.356Z,1000.52
2018-03-30T00:46:35.325Z,1000.54
2018-03-30T00:47:35.308Z,1000.54
2018-03-30T00:48:35.309Z,1000.53
2018-03-30T00:49:35.252Z,1000.47
2018-03-30T00:50:35.225Z,1000.46
2018-03-30T00:51:35.214Z,1000.43
2018-03-30T00:52:35.177Z,1000.41
2018-03-30T00:53:35.154Z,1000.39
2018-03-30T00:54:35.139Z,1000.39
2018-03-30T00:55:35.135Z,1000.37
2018-03-30T00:56:35.083Z,1000.35
2018-03-30T00:57:35.064Z,1000.34
2018-03-30T00:58:35.034Z,1000.33
2018-03-30T00:59:35.010Z,1000.30
2018-03-30T01:00:34.983Z,1000.30
2018-03-30T01:01:34.960Z,1000.28
2018-03-30T01:02:34.939Z,1000.32
2018-03-30T01:03:34.911Z,1000.25
2018-03-30T01:04:34.885Z,1000.28
2018-03-30T01:05:34.860Z,1000.25
2018-03-30T01:06:34.839Z,1000.29
2018-03-30T01:07:34.814Z,1000.28
2018-03-30T01:08:34.860Z,1000.30
2018-03-30T01:09:34.762Z,1000.34
2018-03-30T01:10:34.739Z,1000.32
2018-03-30T01:11:34.719Z,1000.37
2018-03-30T01:12:34.694Z,1000.30
2018-03-30T01:13:34.676Z,1000.31
2018-03-30T01:14:34.641Z,1000.33
2018-03-30T01:15:34.761Z,1000.32
2018-03-30T01:16:34.591Z,1000.24
2018-03-30T01:17:34.568Z,1000.29
2018-03-30T01:18:34.568Z,1000.29
2018-03-30T01:19:34.522Z,1000.31
2018-03-30T01:20:34.498Z,1000.28
2018-03-30T01:21:34.504Z,1000.26
2018-03-30T01:22:34.446Z,1000.27
2018-03-30T01:23:34.423Z,1000.27
2018-03-30T01:24:34.406Z,1000.26
2018-03-30T01:25:34.375Z,1000.28
2018-03-30T01:26:34.347Z,1000.28
2018-03-30T01:27:34.327Z,1000.25
2018-03-30T01:28:34.300Z,1000.25
2018-03-30T01:29:34.277Z,1000.26
2018-03-30T01:30:34.257Z,1000.23
2018-03-30T01:31:34.229Z,1000.24
2018-03-30T01:32:34.201Z,1000.22
2018-03-30T01:33:34.189Z,1000.20
2018-03-30T01:34:34.164Z,1000.16
2018-03-30T01:35:34.136Z,1000.19
2018-03-30T01:36:34.105Z,1000.21
2018-03-30T01:37:34.211Z,1000.14
2018-03-30T01:38:34.055Z,1000.15
2018-03-30T01:39:34.031Z,1000.12
2018-03-30T01:40:34.009Z,1000.11
2018-03-30T01:41:33.994Z,1000.08
2018-03-30T01:42:33.959Z,1000.06
2018-03-30T01:43:33.932Z,1000.10
2018-03-30T01:44:33.908Z,1000.12
2018-03-30T01:45:33.884Z,1000.06
2018-03-30T01:46:33.910Z,1000.03
2018-03-30T01:47:33.837Z,1000.08
2018-03-30T01:48:33.824Z,1000.12
2018-03-30T01:49:33.789Z,1000.05
2018-03-30T01:50:33.771Z,1000.09
2018-03-30T01:51:33.744Z,1000.13
2018-03-30T01:52:33.721Z,1000.06
2018-03-30T01:53:33.815Z,1000.02
2018-03-30T01:54:33.671Z,1000.02
2018-03-30T01:55:33.645Z,1000.04
2018-03-30T01:56:33.619Z,1000.03
2018-03-30T01:57:33.596Z,1000.03
2018-03-30T01:58:33.572Z,1000.00
2018-03-30T01:59:33.547Z,999.96
2018-03-30T02:00:33.526Z,999.93
2018-03-30T02:01:33.510Z,999.97
2018-03-30T02:02:33.474Z,999.97
2018-03-30T02:03:33.447Z,999.96
2018-03-30T02:04:33.424Z,1000.01
2018-03-30T02:05:33.404Z,999.98
2018-03-30T02:06:33.539Z,999.93
2018-03-30T02:07:33.361Z,999.96
2018-03-30T02:08:33.334Z,999.95
2018-03-30T02:09:33.316Z,999.96
2018-03-30T02:10:33.282Z,999.97
2018-03-30T02:11:33.255Z,999.97
2018-03-30T02:12:33.250Z,999.97
2018-03-30T02:13:33.203Z,999.99
2018-03-30T02:14:33.181Z,999.99
2018-03-30T02:15:33.160Z,999.97
2018-03-30T02:16:33.132Z,999.96
2018-03-30T02:17:33.106Z,999.97
2018-03-30T02:18:33.084Z,999.92
2018-03-30T02:19:33.060Z,999.97
2018-03-30T02:20:33.034Z,999.93
2018-03-30T02:21:33.011Z,999.95
2018-03-30T02:22:32.983Z,999.94
2018-03-30T02:23:32.960Z,999.88
2018-03-30T02:24:32.959Z,999.89
2018-03-30T02:25:32.977Z,999.83
2018-03-30T02:26:32.884Z,999.88
2018-03-30T02:27:32.858Z,999.86
2018-03-30T02:28:32.858Z,999.84
2018-03-30T02:29:32.810Z,999.81
2018-03-30T02:30:32.798Z,999.81
2018-03-30T02:31:32.863Z,999.81
2018-03-30T02:32:32.740Z,999.76
2018-03-30T02:33:32.715Z,999.76
2018-03-30T02:34:32.690Z,999.79
2018-03-30T02:35:32.786Z,999.77
2018-03-30T02:36:32.641Z,999.75
2018-03-30T02:37:32.615Z,999.73
2018-03-30T02:38:32.596Z,999.74
2018-03-30T02:39:32.579Z,999.71
2018-03-30T02:40:32.542Z,999.71
2018-03-30T02:41:32.520Z,999.69
2018-03-30T02:42:32.627Z,999.69
2018-03-30T02:43:32.469Z,999.71
2018-03-30T02:44:32.444Z,999.73
2018-03-30T02:45:32.423Z,999.70
2018-03-30T02:46:32.402Z,999.72
2018-03-30T02:47:32.371Z,999.70
2018-03-30T02:48:32.348Z,999.68
2018-03-30T02:49:32.323Z,999.69
2018-03-30T02:50:32.300Z,999.71
2018-03-30T02:51:32.277Z,999.70
2018-03-30T02:52:32.252Z,999.72
2018-03-30T02:53:32.227Z,999.72
2018-03-30T02:54:32.213Z,999.71
2018-03-30T02:55:32.179Z,999.68
2018-03-30T02:56:32.152Z,999.68
2018-03-30T02:57:32.144Z,999.67
2018-03-30T02:58:32.107Z,999.63
2018-03-30T02:59:32.088Z,999.67
2018-03-30T03:00:32.066Z,999.63
2018-03-30T03:01:32.036Z,999.64
2018-03-30T03:02:32.008Z,999.71
2018-03-30T03:03:31.986Z,999.66
2018-03-30T03:04:32.093Z,999.65
2018-03-30T03:05:31.939Z,999.68
2018-03-30T03:06:31.922Z,999.64
2018-03-30T03:07:31.947Z,999.66
2018-03-30T03:08:31.865Z,999.66
2018-03-30T03:09:31.839Z,999.65
2018-03-30T03:10:31.820Z,999.62
2018-03-30T03:11:31.795Z,999.58
2018-03-30T03:12:31.768Z,999.60
2018-03-30T03:13:31.746Z,999.58
2018-03-30T03:14:31.732Z,999.53
2018-03-30T03:15:31.696Z,999.48
2018-03-30T03:16:31.674Z,999.51
2018-03-30T03:17:31.650Z,999.53
2018-03-30T03:18:31.637Z,999.51
2018-03-30T03:19:31.602Z,999.51
2018-03-30T03:20:31.579Z,999.49
2018-03-30T03:21:31.555Z,999.49
2018-03-30T03:22:31.533Z,999.47
2018-03-30T03:23:31.656Z,999.45
2018-03-30T03:24:31.490Z,999.45
2018-03-30T03:25:31.474Z,999.49
2018-03-30T03:26:31.433Z,999.50
2018-03-30T03:27:31.412Z,999.48
2018-03-30T03:28:31.385Z,999.45
2018-03-30T03:29:31.363Z,999.42
2018-03-30T03:30:31.338Z,999.44
2018-03-30T03:31:31.320Z,999.43
2018-03-30T03:32:31.292Z,999.45
2018-03-30T03:33:31.267Z,999.42
2018-03-30T03:34:31.242Z,999.42
2018-03-30T03:35:31.214Z,999.44
2018-03-30T03:36:31.192Z,999.42
2018-03-30T03:37:31.171Z,999.49
2018-03-30T03:38:31.145Z,999.44
2018-03-30T03:39:31.132Z,999.42
2018-03-30T03:40:31.094Z,999.40
2018-03-30T03:41:31.074Z,999.38
2018-03-30T03:42:31.055Z,999.38
2018-03-30T03:43:31.025Z,999.38
2018-03-30T03:44:31.001Z,999.33
2018-03-30T03:45:30.973Z,999.31
2018-03-30T03:46:30.953Z,999.27
2018-03-30T03:47:31.044Z,999.25
2018-03-30T03:48:30.903Z,999.25
2018-03-30T03:49:30.875Z,999.28
2018-03-30T03:50:31.002Z,999.29
2018-03-30T03:51:30.829Z,999.28
2018-03-30T03:52:30.804Z,999.29
2018-03-30T03:53:30.787Z,999.25
2018-03-30T03:54:30.759Z,999.21
2018-03-30T03:55:30.734Z,999.23
2018-03-30T03:56:30.709Z,999.23
2018-03-30T03:57:30.684Z,999.21
2018-03-30T03:58:30.661Z,999.20
2018-03-30T03:59:30.639Z,999.21
2018-03-30T04:00:30.614Z,999.18
2018-03-30T04:01:30.591Z,999.17
2018-03-30T04:02:30.567Z,999.20
2018-03-30T04:03:30.543Z,999.17
2018-03-30T04:04:30.518Z,999.19
2018-03-30T04:05:30.493Z,999.15
2018-03-30T04:06:30.471Z,999.17
2018-03-30T04:07:30.448Z,999.18
2018-03-30T04:08:30.437Z,999.21
2018-03-30T04:09:30.416Z,999.15
2018-03-30T04:10:30.376Z,999.17
2018-03-30T04:11:30.351Z,999.14
2018-03-30T04:12:30.415Z,999.12
2018-03-30T04:13:30.306Z,999.09
2018-03-30T04:14:30.282Z,999.12
2018-03-30T04:15:30.259Z,999.08
2018-03-30T04:16:30.241Z,999.08
2018-03-30T04:17:30.210Z,999.08
2018-03-30T04:18:30.186Z,999.07
2018-03-30T04:19:30.162Z,999.07
2018-03-30T04:20:30.138Z,999.03
2018-03-30T04:21:30.115Z,999.01
2018-03-30T04:22:30.092Z,999.02
2018-03-30T04:23:30.069Z,998.99
2018-03-30T04:24:30.040Z,999.04
2018-03-30T04:25:30.024Z,999.03
2018-03-30T04:26:29.996Z,998.97
2018-03-30T04:27:29.971Z,999.03
2018-03-30T04:28:29.947Z,998.96
2018-03-30T04:29:29.923Z,999.01
2018-03-30T04:30:29.901Z,998.96
2018-03-30T04:31:29.894Z,998.97
2018-03-30T04:32:29.850Z,998.94
2018-03-30T04:33:29.831Z,998.92
2018-03-30T04:34:29.823Z,998.92
2018-03-30T04:35:29.784Z,998.88
2018-03-30T04:36:29.753Z,998.89
2018-03-30T04:37:29.739Z,998.89
2018-03-30T04:38:29.707Z,998.92
2018-03-30T04:39:29.685Z,998.88
2018-03-30T04:40:29.677Z,998.85
2018-03-30T04:41:29.636Z,998.85
2018-03-30T04:42:29.614Z,998.88
2018-03-30T04:43:29.589Z,998.84
2018-03-30T04:44:29.562Z,998.87
2018-03-30T04:45:29.537Z,998.91
2018-03-30T04:46:29.516Z,998.82
2018-03-30T04:47:29.501Z,998.86
2018-03-30T04:48:29.464Z,998.86
2018-03-30T04:49:29.442Z,998.82
2018-03-30T04:50:29.417Z,998.86
2018-03-30T04:51:29.431Z,998.83
2018-03-30T04:52:29.371Z,998.86
2018-03-30T04:53:29.350Z,998.86
2018-03-30T04:54:29.322Z,998.87
2018-03-30T04:55:29.318Z,998.84
2018-03-30T04:56:29.273Z,998.84
2018-03-30T04:57:29.251Z,998.80
2018-03-30T04:58:29.384Z,998.78
2018-03-30T04:59:29.201Z,998.74
2018-03-30T05:00:29.187Z,998.72
2018-03-30T05:01:29.155Z,998.72
2018-03-30T05:02:29.136Z,998.73
2018-03-30T05:03:29.104Z,998.73
2018-03-30T05:04:29.080Z,998.73
2018-03-30T05:05:29.057Z,998.74
2018-03-30T05:06:29.032Z,998.74
2018-03-30T05:07:29.009Z,998.75
2018-03-30T05:08:28.989Z,998.77
2018-03-30T05:09:28.965Z,998.76
2018-03-30T05:10:28.935Z,998.75
2018-03-30T05:11:28.911Z,998.73
2018-03-30T05:12:28.882Z,998.73
2018-03-30T05:13:28.859Z,998.78
2018-03-30T05:14:28.840Z,998.73
2018-03-30T05:15:28.812Z,998.72
2018-03-30T05:16:28.789Z,998.73
2018-03-30T05:17:28.768Z,998.72
2018-03-30T05:18:28.738Z,998.74
2018-03-30T05:19:28.718Z,998.76
2018-03-30T05:20:28.725Z,998.77
2018-03-30T05:21:28.672Z,998.74
2018-03-30T05:22:28.642Z,998.71
2018-03-30T05:23:28.622Z,998.79
2018-03-30T05:24:28.594Z,998.79
2018-03-30T05:25:28.576Z,998.76
2018-03-30T05:26:28.551Z,998.78
2018-03-30T05:27:28.525Z,998.80
2018-03-30T05:28:28.502Z,998.84
2018-03-30T05:29:28.472Z,998.82
2018-03-30T05:30:28.465Z,998.91
2018-03-30T05:31:28.427Z,998.96
2018-03-30T05:32:28.407Z,999.06
2018-03-30T05:33:28.376Z,999.13
2018-03-30T05:34:28.364Z,999.15
2018-03-30T05:35:28.330Z,999.19
2018-03-30T05:36:28.308Z,999.18
2018-03-30T05:37:28.287Z,999.15
2018-03-30T05:38:28.264Z,999.17
2018-03-30T05:39:28.238Z,999.12
2018-03-30T05:40:28.206Z,999.06
2018-03-30T05:41:28.185Z,999.04
2018-03-30T05:42:28.164Z,999.03
2018-03-30T05:43:28.136Z,999.01
2018-03-30T05:44:28.115Z,999.07
2018-03-30T05:45:28.088Z,999.10
2018-03-30T05:46:28.090Z,999.12
2018-03-30T05:47:28.044Z,999.17
2018-03-30T05:48:28.018Z,999.17
2018-03-30T05:49:28.016Z,999.15
2018-03-30T05:50:27.974Z,999.15
2018-03-30T05:51:27.955Z,999.13
2018-03-30T05:52:27.925Z,999.11
2018-03-30T05:53:27.982Z,999.07
2018-03-30T05:54:27.879Z,999.03
2018-03-30T05:55:27.858Z,999.04
2018-03-30T05:56:27.841Z,999.07
2018-03-30T05:57:27.810Z,999.10
2018-03-30T05:58:27.786Z,999.11
2018-03-30T05:59:27.773Z,999.13
2018-03-30T06:00:27.740Z,999.10
2018-03-30T06:01:27.716Z,999.13
2018-03-30T06:02:27.694Z,999.14
2018-03-30T06:03:27.673Z,999.12
2018-03-30T06:04:27.648Z,999.09
2018-03-30T06:05:27.626Z,999.11
2018-03-30T06:06:27.604Z,999.11
2018-03-30T06:07:27.584Z,999.13
2018-03-30T06:08:27.565Z,999.17
2018-03-30T06:09:27.538Z,999.19
2018-03-30T06:10:27.513Z,999.20
2018-03-30T06:11:27.514Z,999.18
2018-03-30T06:12:27.466Z,999.18
2018-03-30T06:13:27.472Z,999.14
2018-03-30T06:14:27.423Z,999.17
2018-03-30T06:15:27.403Z,999.15
2018-03-30T06:16:27.385Z,999.13
2018-03-30T06:17:27.357Z,999.10
2018-03-30T06:18:27.453Z,999.09
2018-03-30T06:19:27.316Z,999.10
2018-03-30T06:20:27.285Z,999.12
2018-03-30T06:21:27.262Z,999.13
2018-03-30T06:22:27.256Z,999.12
2018-03-30T06:23:27.216Z,999.13
2018-03-30T06:24:27.193Z,999.10
2018-03-30T06:25:27.173Z,999.12
2018-03-30T06:26:27.149Z,999.11
2018-03-30T06:27:27.130Z,999.12
2018-03-30T06:28:27.104Z,999.12
2018-03-30T06:29:27.094Z,999.11
2018-03-30T06:30:27.060Z,999.13
2018-03-30T06:31:27.044Z,999.16
2018-03-30T06:32:27.022Z,999.15
2018-03-30T06:33:26.992Z,999.14
2018-03-30T06:34:26.981Z,999.12
2018-03-30T06:35:26.950Z,999.14
2018-03-30T06:36:26.929Z,999.14
2018-03-30T06:37:26.909Z,999.15
2018-03-30T06:38:26.885Z,999.16
2018-03-30T06:39:26.864Z,999.20
2018-03-30T06:40:26.846Z,999.14
2018-03-30T06:41:26.819Z,999.17
2018-03-30T06:42:26.798Z,999.18
2018-03-30T06:43:26.790Z,999.21
2018-03-30T06:44:26.751Z,999.23
2018-03-30T06:45:26.734Z,999.20
2018-03-30T06:46:26.709Z,999.24
2018-03-30T06:47:26.689Z,999.22
2018-03-30T06:48:26.759Z,999.22
2018-03-30T06:49:26.647Z,999.22
2018-03-30T06:50:26.623Z,999.23
2018-03-30T06:51:26.604Z,999.23
2018-03-30T06:52:26.583Z,999.23
2018-03-30T06:53:26.560Z,999.20
2018-03-30T06:54:26.538Z,999.24
2018-03-30T06:55:26.512Z,999.27
2018-03-30T06:56:26.491Z,999.24
2018-03-30T06:57:26.472Z,999.22
2018-03-30T06:58:26.455Z,999.26
2018-03-30T06:59:26.431Z,999.22
2018-03-30T07:00:26.410Z,999.20
2018-03-30T07:01:26.387Z,999.20
2018-03-30T07:02:26.368Z,999.16
2018-03-30T07:03:26.357Z,999.18
2018-03-30T07:04:26.325Z,999.12
2018-03-30T07:05:26.309Z,999.16
2018-03-30T07:06:26.277Z,999.11
2018-03-30T07:07:26.259Z,999.15
2018-03-30T07:08:26.236Z,999.15
2018-03-30T07:09:26.215Z,999.12
2018-03-30T07:10:26.210Z,999.13
2018-03-30T07:11:26.179Z,999.12
2018-03-30T07:12:26.156Z,999.10
2018-03-30T07:13:26.138Z,999.18
2018-03-30T07:14:26.110Z,999.13
2018-03-30T07:15:26.088Z,999.13
2018-03-30T07:16:26.068Z,999.19
2018-03-30T07:17:26.047Z,999.20
2018-03-30T07:18:26.048Z,999.20
2018-03-30T07:19:26.005Z,999.22
2018-03-30T07:20:25.987Z,999.23
2018-03-30T07:21:25.972Z,999.23
2018-03-30T07:22:25.952Z,999.23
2018-03-30T07:23:25.919Z,999.25
2018-03-30T07:24:25.898Z,999.21
2018-03-30T07:25:25.878Z,999.23
2018-03-30T07:26:25.859Z,999.26
2018-03-30T07:27:25.833Z,999.24
2018-03-30T07:28:25.813Z,999.28
2018-03-30T07:29:25.800Z,999.29
2018-03-30T07:30:25.772Z,999.26
2018-03-30T07:31:25.755Z,999.22
2018-03-30T07:32:25.735Z,999.25
2018-03-30T07:33:25.712Z,999.31
2018-03-30T07:34:25.691Z,999.36
2018-03-30T07:35:25.666Z,999.33
2018-03-30T07:36:25.645Z,999.36
2018-03-30T07:37:25.697Z,999.37
2018-03-30T07:38:25.607Z,999.36
2018-03-30T07:39:25.633Z,999.30
2018-03-30T07:40:25.566Z,999.32
2018-03-30T07:41:25.545Z,999.36
2018-03-30T07:42:25.524Z,999.31
2018-03-30T07:43:25.505Z,999.35
2018-03-30T07:44:25.483Z,999.37
2018-03-30T07:45:25.482Z,999.39
2018-03-30T07:46:25.448Z,999.36
2018-03-30T07:47:25.424Z,999.35
2018-03-30T07:48:25.411Z,999.37
2018-03-30T07:49:25.387Z,999.28
2018-03-30T07:50:25.370Z,999.28
2018-03-30T07:51:25.351Z,999.29
2018-03-30T07:52:25.340Z,999.30
2018-03-30T07:53:25.319Z,999.28
2018-03-30T07:54:25.291Z,999.31
2018-03-30T07:55:25.276Z,999.23
2018-03-30T07:56:25.271Z,999.26
2018-03-30T07:57:25.234Z,999.22
2018-03-30T07:58:25.214Z,999.25
2018-03-30T07:59:25.201Z,999.23
2018-03-30T08:00:25.181Z,999.24
2018-03-30T08:01:25.164Z,999.26
2018-03-30T08:02:25.142Z,999.24
2018-03-30T08:03:25.124Z,999.24
2018-03-30T08:04:25.133Z,999.32
2018-03-30T08:05:25.108Z,999.28
2018-03-30T08:06:25.083Z,999.29
2018-03-30T08:07:25.054Z,999.26
2018-03-30T08:08:25.038Z,999.30
2018-03-30T08:09:25.018Z,999.30
2018-03-30T08:10:25.000Z,999.34
2018-03-30T08:11:24.993Z,999.25
2018-03-30T08:12:24.968Z,999.21
2018-03-30T08:13:24.950Z,999.16
2018-03-30T08:14:24.946Z,999.13
2018-03-30T08:15:24.933Z,999.12
2018-03-30T08:16:24.902Z,999.08
2018-03-30T08:17:24.882Z,999.10
2018-03-30T08:18:24.897Z,999.12
2018-03-30T08:19:24.850Z,999.10
2018-03-30T08:20:24.845Z,999.07
2018-03-30T08:21:24.816Z,999.08
2018-03-30T08:22:24.815Z,999.09
2018-03-30T08:23:24.805Z,999.05
2018-03-30T08:24:24.785Z,999.07
2018-03-30T08:25:24.756Z,999.04
2018-03-30T08:26:24.836Z,999.06
2018-03-30T08:27:24.716Z,999.05
2018-03-30T08:28:24.696Z,999.01
2018-03-30T08:29:24.688Z,998.99
2018-03-30T08:30:24.664Z,998.96
2018-03-30T08:31:24.661Z,998.94
2018-03-30T08:32:24.628Z,998.93
2018-03-30T08:33:24.622Z,998.92
2018-03-30T08:34:24.602Z,998.88
2018-03-30T08:35:24.580Z,998.85
2018-03-30T08:36:24.563Z,998.87
2018-03-30T08:37:24.544Z,998.87
2018-03-30T08:38:24.533Z,998.86
2018-03-30T08:39:24.507Z,998.91
2018-03-30T08:40:24.498Z,998.88
2018-03-30T08:41:24.470Z,998.86
2018-03-30T08:42:24.600Z,998.81
2018-03-30T08:43:24.437Z,998.77
2018-03-30T08:44:24.431Z,998.77
2018-03-30T08:45:24.432Z,998.76
2018-03-30T08:46:24.392Z,998.73
2018-03-30T08:47:24.376Z,998.72
2018-03-30T08:48:24.355Z,998.74
2018-03-30T08:49:24.334Z,998.71
2018-03-30T08:50:24.322Z,998.71
2018-03-30T08:51:24.304Z,998.72
2018-03-30T08:52:24.278Z,998.72
2018-03-30T08:53:24.260Z,998.75
2018-03-30T08:54:24.259Z,998.76
2018-03-30T08:55:24.300Z,998.76
2018-03-30T08:56:24.211Z,998.77
2018-03-30T08:57:24.205Z,998.74
2018-03-30T08:58:24.179Z,998.76
2018-03-30T08:59:24.158Z,998.82
2018-03-30T09:00:24.149Z,998.75
2018-03-30T09:01:24.298Z,998.71
2018-03-30T09:02:24.108Z,998.68
2018-03-30T09:03:24.092Z,998.71
2018-03-30T09:04:24.147Z,998.65
2018-03-30T09:05:24.055Z,998.65
2018-03-30T09:06:24.043Z,998.63
2018-03-30T09:07:24.087Z,998.61
2018-03-30T09:08:24.007Z,998.60
2018-03-30T09:09:23.998Z,998.57
2018-03-30T09:10:23.972Z,998.58
2018-03-30T09:11:23.972Z,998.50
2018-03-30T09:12:23.948Z,998.45
2018-03-30T09:13:23.926Z,998.50
2018-03-30T09:14:23.903Z,998.52
2018-03-30T09:15:23.889Z,998.51
2018-03-30T09:16:23.871Z,998.50
2018-03-30T09:17:23.866Z,998.48
2018-03-30T09:18:23.848Z,998.46
2018-03-30T09:19:23.824Z,998.49
2018-03-30T09:20:23.803Z,998.49
2018-03-30T09:21:23.791Z,998.49
2018-03-30T09:22:23.779Z,998.53
2018-03-30T09:23:23.755Z,998.59
2018-03-30T09:24:23.748Z,998.66
2018-03-30T09:25:23.720Z,998.79
2018-03-30T09:26:23.705Z,998.70
2018-03-30T09:27:23.699Z,998.71
2018-03-30T09:28:23.687Z,998.59
2018-03-30T09:29:23.659Z,998.68
2018-03-30T09:30:23.657Z,998.76
2018-03-30T09:31:23.705Z,998.71
2018-03-30T09:32:23.645Z,998.73
2018-03-30T09:33:23.605Z,998.77
2018-03-30T09:34:23.592Z,998.61
2018-03-30T09:35:23.589Z,998.44
2018-03-30T09:36:23.575Z,998.46
2018-03-30T09:37:23.557Z,998.36
2018-03-30T09:38:23.541Z,998.42
2018-03-30T09:39:23.539Z,998.35
2018-03-30T09:40:23.518Z,998.31
2018-03-30T09:41:23.504Z,998.24
2018-03-30T09:42:23.495Z,998.24
2018-03-30T09:43:23.490Z,998.36
2018-03-30T09:44:23.582Z,998.17
2018-03-30T09:45:23.457Z,998.28
2018-03-30T09:46:23.444Z,998.24
2018-03-30T09:47:23.535Z,998.26
2018-03-30T09:48:23.433Z,998.20
2018-03-30T09:49:23.407Z,998.14
2018-03-30T09:50:23.395Z,998.35
2018-03-30T09:51:23.381Z,998.32
2018-03-30T09:52:23.374Z,998.32
2018-03-30T09:53:23.364Z,998.32
2018-03-30T09:54:23.351Z,998.14
2018-03-30T09:55:23.330Z,998.05
2018-03-30T09:56:23.319Z,998.04
2018-03-30T09:57:23.325Z,998.06
2018-03-30T09:58:23.301Z,998.07
2018-03-30T09:59:23.285Z,998.17
2018-03-30T10:00:23.275Z,998.10
2018-03-30T10:01:23.266Z,998.18
2018-03-30T10:02:23.250Z,998.18
2018-03-30T10:03:23.243Z,998.15
2018-03-30T10:04:23.312Z,998.18
2018-03-30T10:05:23.219Z,998.11
2018-03-30T10:06:23.208Z,998.14
2018-03-30T10:07:23.200Z,998.13
2018-03-30T10:08:23.190Z,998.09
2018-03-30T10:09:23.183Z,998.03
2018-03-30T10:10:23.272Z,998.02
2018-03-30T10:11:23.164Z,998.04
2018-03-30T10:12:23.157Z,998.08
2018-03-30T10:13:23.146Z,997.97
2018-03-30T10:14:23.143Z,998.02
2018-03-30T10:15:23.133Z,998.02
2018-03-30T10:16:23.123Z,997.99
2018-03-30T10:17:23.120Z,997.99
2018-03-30T10:18:23.117Z,997.93
2018-03-30T10:19:23.097Z,998.01
2018-03-30T10:20:23.092Z,998.03
2018-03-30T10:21:23.082Z,997.99
2018-03-30T10:22:23.095Z,998.00
2018-03-30T10:23:23.075Z,998.00
2018-03-30T10:24:23.062Z,997.93
2018-03-30T10:25:23.055Z,997.97
2018-03-30T10:26:23.053Z,997.96
2018-03-30T10:27:23.046Z,997.95
2018-03-30T10:28:23.040Z,997.90
2018-03-30T10:29:23.030Z,997.89
2018-03-30T10:30:23.023Z,997.89
2018-03-30T10:31:23.017Z,997.88
2018-03-30T10:32:23.007Z,997.89
2018-03-30T10:33:23.010Z,997.94
2018-03-30T10:34:23.007Z,997.85
2018-03-30T10:35:22.991Z,997.74
2018-03-30T10:36:22.990Z,997.71
2018-03-30T10:37:22.982Z,997.78
2018-03-30T10:38:22.972Z,997.78
2018-03-30T10:39:22.966Z,997.79
2018-03-30T10:40:22.961Z,997.77
2018-03-30T10:41:23.038Z,997.78
2018-03-30T10:42:22.952Z,997.80
2018-03-30T10:43:22.950Z,997.82
2018-03-30T10:44:22.933Z,997.77
2018-03-30T10:45:22.928Z,997.80
2018-03-30T10:46:22.931Z,997.79
2018-03-30T10:47:22.919Z,997.79
2018-03-30T10:48:22.912Z,997.84
2018-03-30T10:49:22.904Z,997.82
2018-03-30T10:50:22.905Z,997.82
2018-03-30T10:51:22.911Z,997.86
2018-03-30T10:52:22.889Z,997.82
2018-03-30T10:53:22.894Z,997.57
2018-03-30T10:54:22.894Z,997.69
2018-03-30T10:55:22.874Z,997.69
2018-03-30T10:56:22.868Z,997.21
2018-03-30T10:57:22.973Z,997.55
2018-03-30T10:58:22.870Z,997.33
2018-03-30T10:59:22.851Z,996.89
2018-03-30T11:00:22.839Z,996.96
2018-03-30T11:01:22.846Z,997.48
2018-03-30T11:02:22.833Z,997.40
2018-03-30T11:03:22.824Z,997.39
2018-03-30T11:04:22.814Z,997.41
2018-03-30T11:05:22.850Z,997.36
2018-03-30T11:06:22.793Z,997.33
2018-03-30T11:07:22.787Z,997.29
2018-03-30T11:08:22.780Z,997.36
2018-03-30T11:09:22.769Z,997.32
2018-03-30T11:10:22.781Z,997.36
2018-03-30T11:11:22.764Z,997.33
2018-03-30T11:12:22.749Z,997.28
2018-03-30T11:13:22.797Z,997.21
2018-03-30T11:14:22.729Z,997.13
2018-03-30T11:15:22.718Z,997.12
2018-03-30T11:16:22.711Z,997.11
2018-03-30T11:17:22.714Z,997.15
2018-03-30T11:18:22.701Z,997.15
2018-03-30T11:19:22.690Z,996.76
2018-03-30T11:20:22.675Z,996.68
2018-03-30T11:21:22.670Z,997.01
2018-03-30T11:22:22.664Z,996.98
2018-03-30T11:23:22.650Z,996.96
2018-03-30T11:24:22.638Z,996.97
2018-03-30T11:25:22.634Z,996.87
2018-03-30T11:26:22.619Z,997.12
2018-03-30T11:27:22.624Z,997.14
2018-03-30T11:28:22.602Z,997.13
2018-03-30T11:29:22.596Z,997.09
2018-03-30T11:30:22.585Z,997.14
2018-03-30T11:31:22.583Z,997.28
2018-03-30T11:32:22.572Z,997.21
2018-03-30T11:33:22.565Z,997.37
2018-03-30T11:34:22.548Z,997.24
2018-03-30T11:35:22.535Z,997.29
2018-03-30T11:36:22.526Z,997.55
2018-03-30T11:37:22.536Z,997.50
2018-03-30T11:38:22.512Z,997.43
2018-03-30T11:39:22.503Z,997.38
2018-03-30T11:40:22.493Z,997.32
2018-03-30T11:41:22.645Z,997.32
2018-03-30T11:42:22.475Z,997.29
2018-03-30T11:43:22.468Z,997.23
2018-03-30T11:44:22.463Z,996.39
2018-03-30T11:45:22.461Z,997.10
2018-03-30T11:46:22.443Z,997.15
2018-03-30T11:47:22.431Z,997.08
2018-03-30T11:48:22.424Z,996.86
2018-03-30T11:49:22.415Z,996.91
2018-03-30T11:50:22.418Z,996.83
2018-03-30T11:51:22.415Z,996.67
2018-03-30T11:52:22.388Z,996.57
2018-03-30T11:53:22.387Z,996.52
2018-03-30T11:54:22.371Z,996.50
2018-03-30T11:55:22.365Z,996.37
2018-03-30T11:56:22.362Z,996.19
2018-03-30T11:57:22.341Z,996.07
2018-03-30T11:58:22.330Z,995.96
2018-03-30T11:59:22.332Z,995.97
2018-03-30T12:00:22.321Z,995.90
2018-03-30T12:01:22.304Z,995.83
2018-03-30T12:02:22.293Z,995.76
2018-03-30T12:03:22.283Z,995.77
2018-03-30T12:04:22.273Z,995.74
2018-03-30T12:05:22.262Z,995.68
2018-03-30T12:06:22.255Z,995.70
2018-03-30T12:07:22.259Z,995.69
2018-03-30T12:08:22.244Z,995.65
2018-03-30T12:09:22.222Z,995.66
2018-03-30T12:10:22.223Z,995.57
2018-03-30T12:11:22.221Z,995.52
2018-03-30T12:12:22.191Z,995.52
2018-03-30T12:13:22.178Z,995.48
2018-03-30T12:14:22.170Z,995.50
2018-03-30T12:15:22.159Z,995.46
2018-03-30T12:16:22.148Z,995.44
2018-03-30T12:17:22.136Z,995.39
2018-03-30T12:18:22.121Z,995.37
2018-03-30T12:19:22.112Z,995.32
2018-03-30T12:20:22.119Z,995.27
2018-03-30T12:21:22.100Z,995.19
2018-03-30T12:22:22.074Z,995.16
2018-03-30T12:23:22.060Z,995.09
2018-03-30T12:24:22.047Z,995.06